createdAt,value
2023-03-03T00:01:03.288Z,100790.38
2023-03-03T00:03:32.789Z,100795.56
2023-03-03T00:06:00.985Z,100794.75
2023-03-03T00:08:28.909Z,100797.31
2023-03-03T00:10:56.695Z,100805.84
2023-03-03T00:13:26.353Z,100800.69
2023-03-03T00:15:55.069Z,100803.25
2023-03-03T00:18:29.992Z,100801.56
2023-03-03T00:21:01.465Z,100808.41
2023-03-03T00:23:37.292Z,100805.84
2023-03-03T00:26:20.429Z,100805.88
2023-03-03T00:28:50.911Z,100803.34
2023-03-03T00:31:22.499Z,100805.97
2023-03-03T00:33:54.656Z,100808.50
2023-03-03T00:36:38.387Z,100812.75
2023-03-03T00:39:24.833Z,100811.91
2023-03-03T00:41:53.023Z,100819.59
2023-03-03T00:44:42.882Z,100810.22
2023-03-03T00:47:31.782Z,100814.53
2023-03-03T00:50:28.334Z,100818.81
2023-03-03T00:53:08.637Z,100815.38
2023-03-03T00:55:37.235Z,100823.09
2023-03-03T00:58:05.610Z,100830.81
2023-03-03T01:00:38.394Z,100826.53
2023-03-03T01:03:10.747Z,100831.69
2023-03-03T01:05:38.710Z,100830.81
2023-03-03T01:08:08.549Z,100836.84
2023-03-03T01:10:40.209Z,100837.66
2023-03-03T01:13:09.714Z,100834.22
2023-03-03T01:15:38.686Z,100831.66
2023-03-03T01:18:06.669Z,100832.53
2023-03-03T01:20:35.292Z,100841.94
2023-03-03T01:23:03.524Z,100838.53
2023-03-03T01:25:33.652Z,100835.13
2023-03-03T01:28:01.501Z,100835.13
2023-03-03T01:30:29.676Z,100837.72
2023-03-03T01:32:58.222Z,100834.28
2023-03-03T01:35:26.295Z,100829.16
2023-03-03T01:37:54.100Z,100832.56
2023-03-03T01:40:24.742Z,100828.28
2023-03-03T01:42:53.996Z,100827.44
2023-03-03T01:45:24.246Z,100827.44
2023-03-03T01:48:02.707Z,100819.75
2023-03-03T01:50:47.624Z,100813.75
2023-03-03T01:53:19.998Z,100827.44
2023-03-03T01:55:51.298Z,100822.31
2023-03-03T01:58:25.058Z,100824.06
2023-03-03T02:00:58.842Z,100824.03
2023-03-03T02:03:27.023Z,100831.75
2023-03-03T02:05:58.963Z,100829.16
2023-03-03T02:08:32.607Z,100822.34
2023-03-03T02:11:00.830Z,100819.75
2023-03-03T02:13:30.222Z,100820.59
2023-03-03T02:15:59.130Z,100823.19
2023-03-03T02:18:28.166Z,100823.19
2023-03-03T02:21:03.443Z,100825.72
2023-03-03T02:23:39.680Z,100817.19
2023-03-03T02:26:11.954Z,100825.72
2023-03-03T02:28:41.360Z,100818.06
2023-03-03T02:31:14.265Z,100814.63
2023-03-03T02:33:43.757Z,100824.03
2023-03-03T02:36:14.582Z,100818.06
2023-03-03T02:38:47.752Z,100824.03
2023-03-03T02:41:26.903Z,100828.31
2023-03-03T02:44:00.358Z,100827.41
2023-03-03T02:46:32.803Z,100821.44
2023-03-03T02:49:01.969Z,100817.19
2023-03-03T02:51:30.401Z,100821.44
2023-03-03T02:53:58.464Z,100821.41
2023-03-03T02:56:30.394Z,100823.13
2023-03-03T02:58:58.325Z,100823.16
2023-03-03T03:01:26.377Z,100822.31
2023-03-03T03:03:55.453Z,100822.28
2023-03-03T03:06:24.470Z,100822.31
2023-03-03T03:08:52.550Z,100814.59
2023-03-03T03:11:20.290Z,100818.00
2023-03-03T03:13:50.473Z,100823.97
2023-03-03T03:16:18.369Z,100831.63
2023-03-03T03:18:46.824Z,100832.50
2023-03-03T03:21:15.805Z,100831.63
2023-03-03T03:23:43.875Z,100829.91
2023-03-03T03:26:13.464Z,100835.84
2023-03-03T03:28:41.575Z,100832.47
2023-03-03T03:31:11.239Z,100837.56
2023-03-03T03:33:39.012Z,100834.16
2023-03-03T03:36:08.815Z,100831.59
2023-03-03T03:38:37.762Z,100831.56
2023-03-03T03:41:08.694Z,100835.00
2023-03-03T03:43:37.228Z,100832.41
2023-03-03T03:46:05.633Z,100838.41
2023-03-03T03:48:36.078Z,100834.13
2023-03-03T03:51:06.946Z,100840.94
2023-03-03T03:53:36.014Z,100841.78
2023-03-03T03:56:03.878Z,100838.34
2023-03-03T03:58:32.327Z,100836.69
2023-03-03T04:01:06.112Z,100840.06
2023-03-03T04:03:37.685Z,100838.38
2023-03-03T04:06:09.727Z,100835.75
2023-03-03T04:08:37.594Z,100831.53
2023-03-03T04:11:05.726Z,100834.91
2023-03-03T04:13:35.368Z,100839.19
2023-03-03T04:16:07.333Z,100852.00
2023-03-03T04:18:37.940Z,100850.25
2023-03-03T04:21:06.149Z,100843.44
2023-03-03T04:23:34.550Z,100843.41
2023-03-03T04:26:03.449Z,100838.34
2023-03-03T04:28:31.519Z,100847.72
2023-03-03T04:31:00.621Z,100846.03
2023-03-03T04:33:30.962Z,100843.44
2023-03-03T04:36:00.896Z,100846.03
2023-03-03T04:38:29.032Z,100845.16
2023-03-03T04:40:57.800Z,100848.56
2023-03-03T04:43:27.635Z,100856.25
2023-03-03T04:45:56.617Z,100855.41
2023-03-03T04:48:24.457Z,100856.28
2023-03-03T04:50:52.867Z,100850.31
2023-03-03T04:53:22.688Z,100855.44
2023-03-03T04:55:51.576Z,100856.25
2023-03-03T04:58:19.971Z,100869.91
2023-03-03T05:00:49.421Z,100870.75
2023-03-03T05:03:17.218Z,100874.16
2023-03-03T05:05:44.988Z,100871.56
2023-03-03T05:08:12.808Z,100882.66
2023-03-03T05:10:42.457Z,100884.41
2023-03-03T05:13:10.662Z,100890.44
2023-03-03T05:15:38.643Z,100892.91
2023-03-03T05:18:06.648Z,100896.25
2023-03-03T05:20:34.299Z,100893.75
2023-03-03T05:23:02.103Z,100889.50
2023-03-03T05:25:29.940Z,100893.81
2023-03-03T05:27:59.804Z,100893.88
2023-03-03T05:30:27.572Z,100893.00
2023-03-03T05:32:55.264Z,100888.72
2023-03-03T05:35:23.335Z,100895.56
2023-03-03T05:37:52.707Z,100892.06
2023-03-03T05:40:20.515Z,100892.97
2023-03-03T05:42:49.124Z,100893.81
2023-03-03T05:45:20.352Z,100893.81
2023-03-03T05:47:48.592Z,100893.75
2023-03-03T05:50:17.440Z,100897.13
2023-03-03T05:52:46.012Z,100897.97
2023-03-03T05:55:13.884Z,100893.66
2023-03-03T05:57:41.681Z,100886.81
2023-03-03T06:00:10.924Z,100893.66
2023-03-03T06:02:43.858Z,100903.03
2023-03-03T06:05:12.322Z,100904.72
2023-03-03T06:07:40.027Z,100898.69
2023-03-03T06:10:08.499Z,100903.91
2023-03-03T06:12:39.234Z,100906.47
2023-03-03T06:15:08.328Z,100905.53
2023-03-03T06:17:36.092Z,100915.75
2023-03-03T06:20:06.191Z,100922.56
2023-03-03T06:22:34.212Z,100926.00
2023-03-03T06:25:01.936Z,100932.88
2023-03-03T06:27:30.092Z,100938.75
2023-03-03T06:29:57.817Z,100936.31
2023-03-03T06:32:25.781Z,100943.06
2023-03-03T06:34:54.001Z,100943.06
2023-03-03T06:37:23.061Z,100949.88
2023-03-03T06:39:53.721Z,100950.88
2023-03-03T06:42:21.553Z,100964.47
2023-03-03T06:44:50.307Z,100961.09
2023-03-03T06:47:18.036Z,100961.09
2023-03-03T06:49:46.215Z,100970.53
2023-03-03T06:52:18.922Z,100962.09
2023-03-03T06:54:49.318Z,100959.59
2023-03-03T06:57:24.283Z,100962.97
2023-03-03T06:59:55.627Z,100974.06
2023-03-03T07:02:23.605Z,100974.13
2023-03-03T07:04:51.625Z,100972.50
2023-03-03T07:07:21.640Z,100976.75
2023-03-03T07:09:53.166Z,100979.44
2023-03-03T07:12:23.578Z,100981.16
2023-03-03T07:14:55.928Z,100976.03
2023-03-03T07:17:26.430Z,100988.88
2023-03-03T07:19:55.057Z,100996.59
2023-03-03T07:22:26.263Z,100985.56
2023-03-03T07:25:00.722Z,101000.03
2023-03-03T07:27:29.966Z,100986.41
2023-03-03T07:30:20.728Z,100987.28
2023-03-03T07:32:50.422Z,101001.00
2023-03-03T07:35:31.127Z,100997.53
2023-03-03T07:37:59.040Z,101004.44
2023-03-03T07:40:37.145Z,101006.16
2023-03-03T07:43:27.561Z,101006.19
2023-03-03T07:46:01.379Z,101009.63
2023-03-03T07:48:35.802Z,101016.44
2023-03-03T07:51:07.161Z,101024.16
2023-03-03T07:53:37.978Z,101025.03
2023-03-03T07:56:23.658Z,101022.47
2023-03-03T07:58:52.460Z,101026.78
2023-03-03T08:01:42.669Z,101030.22
2023-03-03T08:04:20.821Z,101045.63
2023-03-03T08:06:52.526Z,101049.91
2023-03-03T08:09:43.527Z,101048.19
2023-03-03T08:12:49.439Z,101044.78
2023-03-03T08:15:32.696Z,101056.75
2023-03-03T08:18:02.827Z,101055.94
2023-03-03T08:20:52.367Z,101055.91
2023-03-03T08:23:21.175Z,101051.66
2023-03-03T08:25:51.312Z,101051.63
2023-03-03T08:28:21.278Z,101058.50
2023-03-03T08:30:50.540Z,101055.91
2023-03-03T08:33:19.427Z,101057.66
2023-03-03T08:35:48.180Z,101063.63
2023-03-03T08:38:18.901Z,101060.22
2023-03-03T08:40:47.940Z,101052.50
2023-03-03T08:43:17.335Z,101053.31
2023-03-03T08:45:48.311Z,101052.47
2023-03-03T08:48:16.475Z,101054.88
2023-03-03T08:50:45.402Z,101061.72
2023-03-03T08:53:14.751Z,101060.94
2023-03-03T08:55:43.111Z,101062.69
2023-03-03T08:58:10.752Z,101064.34
2023-03-03T09:00:39.340Z,101058.47
2023-03-03T09:03:09.185Z,101057.53
2023-03-03T09:05:39.101Z,101060.00
2023-03-03T09:08:08.077Z,101062.66
2023-03-03T09:10:36.756Z,101064.31
2023-03-03T09:13:13.338Z,101066.63
2023-03-03T09:15:41.291Z,101064.16
2023-03-03T09:18:17.724Z,101064.97
2023-03-03T09:20:47.287Z,101060.75
2023-03-03T09:23:29.537Z,101056.47
2023-03-03T09:25:58.334Z,101058.91
2023-03-03T09:28:27.931Z,101058.00
2023-03-03T09:30:58.571Z,101059.75
2023-03-03T09:33:30.440Z,101059.75
2023-03-03T09:36:05.000Z,101062.38
2023-03-03T09:38:35.446Z,101069.16
2023-03-03T09:41:28.521Z,101060.50
2023-03-03T09:44:18.533Z,101060.50
2023-03-03T09:47:00.354Z,101056.97
2023-03-03T09:49:33.375Z,101067.19
2023-03-03T09:52:13.306Z,101061.09
2023-03-03T09:54:55.566Z,101064.00
2023-03-03T09:57:30.445Z,101061.44
2023-03-03T10:00:18.944Z,101068.63
2023-03-03T10:02:56.786Z,101061.31
2023-03-03T10:05:36.244Z,101066.59
2023-03-03T10:08:36.137Z,101065.75
2023-03-03T10:11:17.080Z,101070.00
2023-03-03T10:14:02.062Z,101070.59
2023-03-03T10:16:45.814Z,101074.22
2023-03-03T10:19:29.084Z,101068.81
2023-03-03T10:22:08.475Z,101068.63
2023-03-03T10:24:48.849Z,101057.22
2023-03-03T10:27:34.938Z,101053.66
2023-03-03T10:30:11.842Z,101048.91
2023-03-03T10:32:52.874Z,101050.97
2023-03-03T10:36:07.361Z,101048.66
2023-03-03T10:39:03.751Z,101057.38
2023-03-03T10:41:44.734Z,101063.78
2023-03-03T10:44:34.907Z,101065.72
2023-03-03T10:47:22.585Z,101064.50
2023-03-03T10:50:02.555Z,101053.28
2023-03-03T10:52:39.293Z,101061.78
2023-03-03T10:55:31.748Z,101057.63
2023-03-03T10:58:19.610Z,101063.44
2023-03-03T11:00:54.974Z,101060.59
2023-03-03T11:04:04.726Z,101054.53
2023-03-03T11:06:44.647Z,101045.16
2023-03-03T11:09:31.825Z,101047.44
2023-03-03T11:12:11.879Z,101043.88
2023-03-03T11:14:49.275Z,101055.59
2023-03-03T11:17:24.731Z,101046.13
2023-03-03T11:20:03.441Z,101044.88
2023-03-03T11:22:43.997Z,101039.84
2023-03-03T11:25:28.138Z,101048.94
2023-03-03T11:28:27.758Z,101051.50
2023-03-03T11:31:11.359Z,101047.91
2023-03-03T11:33:51.930Z,101043.16
2023-03-03T11:36:24.285Z,101038.06
2023-03-03T11:38:59.776Z,101046.28
2023-03-03T11:41:38.788Z,101040.78
2023-03-03T11:44:18.383Z,101027.41
2023-03-03T11:46:49.816Z,101039.28
2023-03-03T11:49:25.867Z,101032.50
2023-03-03T11:52:07.973Z,101030.06
2023-03-03T11:54:52.267Z,101028.16
2023-03-03T11:57:24.935Z,101023.59
2023-03-03T12:00:04.868Z,101017.63
2023-03-03T12:02:55.848Z,101015.44
2023-03-03T12:05:39.576Z,101000.56
2023-03-03T12:08:19.369Z,100998.31
2023-03-03T12:10:53.998Z,100995.59
2023-03-03T12:13:28.244Z,100992.91
2023-03-03T12:16:06.466Z,100992.09
2023-03-03T12:18:54.690Z,100988.88
2023-03-03T12:21:41.855Z,100977.91
2023-03-03T12:24:26.611Z,100973.50
2023-03-03T12:27:08.003Z,100974.19
2023-03-03T12:29:47.417Z,100975.81
2023-03-03T12:32:29.012Z,100960.97
2023-03-03T12:35:03.176Z,100959.41
2023-03-03T12:37:48.414Z,100960.19
2023-03-03T12:40:20.893Z,100949.97
2023-03-03T12:43:05.785Z,100947.00
2023-03-03T12:45:45.097Z,100947.28
2023-03-03T12:48:18.772Z,100941.84
2023-03-03T12:51:00.365Z,100939.75
2023-03-03T12:53:52.838Z,100937.44
2023-03-03T12:56:34.053Z,100936.53
2023-03-03T12:59:05.768Z,100931.09
2023-03-03T13:01:44.724Z,100931.91
2023-03-03T13:04:27.503Z,100927.59
2023-03-03T13:07:02.059Z,100921.28
2023-03-03T13:09:41.507Z,100920.84
2023-03-03T13:12:22.625Z,100914.03
2023-03-03T13:14:54.455Z,100913.78
2023-03-03T13:17:28.927Z,100902.97
2023-03-03T13:20:01.250Z,100898.50
2023-03-03T13:22:39.841Z,100905.00
2023-03-03T13:25:18.419Z,100897.78
2023-03-03T13:27:50.224Z,100892.50
2023-03-03T13:30:23.291Z,100908.63
2023-03-03T13:32:56.287Z,100901.53
2023-03-03T13:35:34.663Z,100901.09
2023-03-03T13:38:05.773Z,100896.88
2023-03-03T13:40:44.328Z,100895.97
2023-03-03T13:43:19.182Z,100891.59
2023-03-03T13:46:05.645Z,100893.00
2023-03-03T13:48:58.932Z,100894.38
2023-03-03T13:51:38.287Z,100896.75
2023-03-03T13:54:16.651Z,100889.94
2023-03-03T13:57:05.258Z,100889.84
2023-03-03T13:59:43.144Z,100887.41
2023-03-03T14:02:31.773Z,100880.94
2023-03-03T14:05:04.599Z,100877.19
2023-03-03T14:07:38.720Z,100874.50
2023-03-03T14:10:13.112Z,100871.06
2023-03-03T14:12:59.505Z,100875.47
2023-03-03T14:15:41.287Z,100864.34
2023-03-03T14:18:33.816Z,100860.66
2023-03-03T14:21:08.890Z,100856.47
2023-03-03T14:23:51.192Z,100866.13
2023-03-03T14:26:19.099Z,100855.31
2023-03-03T14:28:50.098Z,100854.66
2023-03-03T14:31:23.146Z,100859.81
2023-03-03T14:34:02.365Z,100847.88
2023-03-03T14:36:34.560Z,100852.75
2023-03-03T14:39:04.026Z,100845.22
2023-03-03T14:41:41.841Z,100841.75
2023-03-03T14:44:27.296Z,100846.75
2023-03-03T14:47:23.516Z,100852.31
2023-03-03T14:49:52.550Z,100854.03
2023-03-03T14:52:25.186Z,100849.97
2023-03-03T14:54:56.041Z,100845.53
2023-03-03T14:57:41.621Z,100851.19
2023-03-03T15:00:29.384Z,100845.16
2023-03-03T15:03:06.624Z,100842.63
2023-03-03T15:05:35.177Z,100853.09
2023-03-03T15:08:10.970Z,100847.75
2023-03-03T15:10:42.117Z,100846.75
2023-03-03T15:13:29.407Z,100845.63
2023-03-03T15:16:12.327Z,100838.69
2023-03-03T15:19:07.107Z,100843.34
2023-03-03T15:21:38.198Z,100848.94
2023-03-03T15:24:11.405Z,100857.97
2023-03-03T15:26:48.583Z,100856.69
2023-03-03T15:29:21.557Z,100850.63
2023-03-03T15:31:55.390Z,100849.56
2023-03-03T15:34:33.881Z,100854.22
2023-03-03T15:37:13.825Z,100857.59
2023-03-03T15:39:51.453Z,100852.59
2023-03-03T15:42:28.045Z,100860.50
2023-03-03T15:45:03.736Z,100857.84
2023-03-03T15:48:01.456Z,100859.09
2023-03-03T15:50:53.906Z,100865.47
2023-03-03T15:53:38.605Z,100863.88
2023-03-03T15:56:20.691Z,100864.38
2023-03-03T15:59:30.285Z,100861.78
2023-03-03T16:02:10.215Z,100853.03
2023-03-03T16:04:45.057Z,100862.31
2023-03-03T16:07:26.024Z,100869.94
2023-03-03T16:10:04.550Z,100865.78
2023-03-03T16:13:00.395Z,100863.38
2023-03-03T16:16:04.958Z,100871.47
2023-03-03T16:18:58.594Z,100870.97
2023-03-03T16:21:45.619Z,100875.41
2023-03-03T16:24:35.044Z,100884.66
2023-03-03T16:27:12.172Z,100884.03
2023-03-03T16:29:59.957Z,100892.03
2023-03-03T16:32:46.406Z,100893.91
2023-03-03T16:38:34.424Z,100903.63
2023-03-03T16:41:25.381Z,100903.56
2023-03-03T16:44:09.720Z,100907.25
2023-03-03T16:46:57.486Z,100910.94
2023-03-03T16:49:39.908Z,100917.06
2023-03-03T16:52:18.921Z,100918.00
2023-03-03T16:54:59.239Z,100926.75
2023-03-03T16:57:48.399Z,100925.13
2023-03-03T17:00:45.568Z,100928.72
2023-03-03T17:03:56.448Z,100935.78
2023-03-03T17:06:46.091Z,100938.31
2023-03-03T17:09:42.798Z,100936.53
2023-03-03T17:12:45.635Z,100952.31
2023-03-03T17:15:42.156Z,100942.13
2023-03-03T17:18:19.902Z,100947.50
2023-03-03T17:20:53.868Z,100953.53
2023-03-03T17:23:36.483Z,100962.28
2023-03-03T17:26:23.061Z,100971.00
2023-03-03T17:29:05.256Z,100969.50
2023-03-03T17:31:40.515Z,100979.00
2023-03-03T17:34:20.936Z,100983.41
2023-03-03T17:37:02.842Z,100995.63
2023-03-03T17:39:58.692Z,100995.66
2023-03-03T17:42:35.369Z,100994.91
2023-03-03T17:45:07.316Z,100992.38
2023-03-03T17:47:47.672Z,101013.13
2023-03-03T17:51:03.050Z,101005.44
2023-03-03T17:54:16.438Z,101012.22
2023-03-03T17:56:54.568Z,101013.22
2023-03-03T17:59:48.999Z,101013.25
2023-03-03T18:02:38.123Z,101021.06
2023-03-03T18:05:41.888Z,101027.13
2023-03-03T18:08:27.100Z,101028.06
2023-03-03T18:11:25.540Z,101038.53
2023-03-03T18:14:20.131Z,101042.03
2023-03-03T18:17:19.346Z,101037.84
2023-03-03T18:20:15.586Z,101049.03
2023-03-03T18:22:47.300Z,101047.31
2023-03-03T18:25:28.765Z,101055.13
2023-03-03T18:28:29.273Z,101062.03
2023-03-03T18:31:37.098Z,101062.06
2023-03-03T18:34:41.959Z,101063.91
2023-03-03T18:37:43.936Z,101068.28
2023-03-03T18:40:56.242Z,101073.44
2023-03-03T18:44:05.547Z,101065.78
2023-03-03T18:46:49.844Z,101074.41
2023-03-03T18:49:21.936Z,101077.91
2023-03-03T18:52:19.166Z,101079.66
2023-03-03T18:55:17.278Z,101080.50
2023-03-03T18:58:19.962Z,101083.91
2023-03-03T19:00:54.324Z,101080.44
2023-03-03T19:03:33.366Z,101082.22
2023-03-03T19:06:06.169Z,101091.66
2023-03-03T19:08:53.888Z,101094.31
2023-03-03T19:11:38.551Z,101101.16
2023-03-03T19:14:34.163Z,101102.94
2023-03-03T19:17:57.456Z,101107.28
2023-03-03T19:20:40.657Z,101109.00
2023-03-03T19:23:16.585Z,101115.88
2023-03-03T19:25:46.929Z,101117.56
2023-03-03T19:28:43.163Z,101119.31
2023-03-03T19:31:22.495Z,101115.88
2023-03-03T19:33:57.040Z,101119.28
2023-03-03T19:36:46.997Z,101120.16
2023-03-03T19:39:52.162Z,101126.16
2023-03-03T19:42:31.396Z,101128.75
2023-03-03T19:45:19.303Z,101133.00
2023-03-03T19:47:53.255Z,101126.19
2023-03-03T19:50:34.442Z,101130.47
2023-03-03T19:53:14.858Z,101139.88
2023-03-03T19:56:00.850Z,101140.72
2023-03-03T19:58:43.342Z,101142.44
2023-03-03T20:01:23.584Z,101140.72
2023-03-03T20:04:18.328Z,101144.16
2023-03-03T20:07:04.956Z,101148.41
2023-03-03T20:21:56.228Z,101150.91
2023-03-03T20:24:46.124Z,101164.63
2023-03-03T20:27:21.202Z,101161.25
2023-03-03T20:30:08.292Z,101162.13
2023-03-03T20:33:01.036Z,101155.25
2023-03-03T20:35:43.181Z,101169.75
2023-03-03T20:38:25.144Z,101168.03
2023-03-03T20:41:06.431Z,101178.25
2023-03-03T20:43:47.069Z,101179.09
2023-03-03T20:46:25.394Z,101177.38
2023-03-03T20:49:29.483Z,101185.00
2023-03-03T20:52:03.749Z,101179.84
2023-03-03T20:54:44.813Z,101184.16
2023-03-03T20:57:36.333Z,101180.75
2023-03-03T21:00:23.343Z,101178.19
2023-03-03T21:03:28.339Z,101181.56
2023-03-03T21:18:21.992Z,101185.69
2023-03-03T21:20:49.693Z,101179.69
2023-03-03T21:23:17.487Z,101183.91
2023-03-03T21:25:53.434Z,101175.28
2023-03-03T21:28:24.670Z,101185.53
2023-03-03T21:31:08.309Z,101194.84
2023-03-03T21:33:49.059Z,101187.22
2023-03-03T21:36:18.548Z,101188.03
2023-03-03T21:38:47.497Z,101194.09
2023-03-03T21:41:17.445Z,101193.25
2023-03-03T21:43:47.403Z,101194.94
2023-03-03T21:46:19.499Z,101199.22
2023-03-03T21:48:48.938Z,101196.66
2023-03-03T21:51:16.997Z,101200.97
2023-03-03T21:53:45.890Z,101194.06
2023-03-03T21:56:15.074Z,101206.75
2023-03-03T21:58:43.341Z,101206.97
2023-03-03T22:01:12.399Z,101204.34
2023-03-03T22:03:40.521Z,101216.28
2023-03-03T22:06:09.586Z,101208.56
2023-03-03T22:08:37.353Z,101206.75
2023-03-03T22:11:05.643Z,101211.81
2023-03-03T22:13:33.509Z,101208.34
2023-03-03T22:16:01.587Z,101209.34
2023-03-03T22:18:29.544Z,101211.94
2023-03-03T22:20:57.405Z,101218.78
2023-03-03T22:23:26.897Z,101215.22
2023-03-03T22:25:55.603Z,101216.09
2023-03-03T22:28:23.345Z,101223.53
2023-03-03T22:30:51.078Z,101221.91
2023-03-03T22:33:18.959Z,101223.41
2023-03-03T22:35:46.782Z,101225.09
2023-03-03T22:38:15.549Z,101223.31
2023-03-03T22:40:44.918Z,101221.63
2023-03-03T22:43:14.531Z,101219.94
2023-03-03T22:45:42.582Z,101221.72
2023-03-03T22:48:10.328Z,101230.47
2023-03-03T22:50:42.618Z,101237.16
2023-03-03T22:53:10.804Z,101231.16
2023-03-03T22:55:39.163Z,101226.09
2023-03-03T22:58:09.621Z,101223.56
2023-03-03T23:00:38.304Z,101235.31
2023-03-03T23:03:06.661Z,101236.22
2023-03-03T23:05:36.133Z,101235.28
2023-03-03T23:08:06.187Z,101230.13
2023-03-03T23:10:35.762Z,101238.63
2023-03-03T23:13:06.877Z,101235.38
2023-03-03T23:15:38.189Z,101244.59
2023-03-03T23:18:07.226Z,101246.34
2023-03-03T23:20:38.069Z,101246.34
2023-03-03T23:23:06.365Z,101243.75
2023-03-03T23:25:34.473Z,101242.84
2023-03-03T23:28:02.224Z,101248.06
2023-03-03T23:30:30.193Z,101243.66
2023-03-03T23:32:59.206Z,101247.88
2023-03-03T23:35:27.105Z,101244.25
2023-03-03T23:37:55.742Z,101247.63
2023-03-03T23:40:23.524Z,101251.06
2023-03-03T23:42:51.560Z,101251.28
2023-03-03T23:45:19.438Z,101252.00
2023-03-03T23:47:47.222Z,101249.44
2023-03-03T23:50:16.208Z,101253.66
2023-03-03T23:52:43.959Z,101252.66
2023-03-03T23:55:12.223Z,101258.69
2023-03-03T23:57:40.079Z,101262.06
